Time;durP1;ratioP1;P1;durP2;ratioP2;P2;SDS_P1;SDS_P2;PMS_P1;PMS_P2;Temp;Humidity;BMP_temperature;BMP_pressure;BME280_temperature;BME280_humidity;BME280_pressure;Samples;Min_cycle;Max_cycle;Signal;HPM_P1;HPM_P2
2022/10/27 00:00:35;;;;;;;3.17;1.80;;;;;;;13.78;69.38;95355.56;5071801;28;20213;-59
2022/10/27 00:03:00;;;;;;;2.35;1.80;;;;;;;13.71;69.36;95362.16;5071846;28;20188;-60
2022/10/27 00:05:26;;;;;;;2.88;1.67;;;;;;;13.64;69.49;95350.00;5071730;28;20762;-61
2022/10/27 00:07:51;;;;;;;2.45;1.55;;;;;;;13.43;70.36;95340.66;5071703;28;20188;-60
2022/10/27 00:10:17;;;;;;;4.35;1.90;;;;;;;13.40;71.01;95327.38;5071875;28;20232;-60
2022/10/27 00:12:43;;;;;;;2.50;1.90;;;;;;;13.19;71.78;95317.22;5071666;28;20185;-59
2022/10/27 00:15:09;;;;;;;5.18;1.90;;;;;;;13.23;72.49;95303.25;5071407;28;20599;-60
2022/10/27 00:17:35;;;;;;;3.63;1.47;;;;;;;13.20;72.62;95313.72;5071756;28;20196;-60
2022/10/27 00:20:01;;;;;;;1.95;1.65;;;;;;;13.05;73.39;95286.94;5071534;28;20239;-60
2022/10/27 00:22:27;;;;;;;2.73;1.57;;;;;;;13.04;74.00;95277.66;5071470;28;20672;-61
2022/10/27 00:24:52;;;;;;;3.47;1.97;;;;;;;13.21;74.03;95301.78;5071280;28;20639;-60
2022/10/27 00:27:18;;;;;;;2.08;1.67;;;;;;;13.27;74.33;95298.72;5071387;28;20187;-60
2022/10/27 00:29:43;;;;;;;4.80;1.80;;;;;;;13.38;73.72;95299.41;5071253;28;20706;-59
2022/10/27 00:32:09;;;;;;;2.15;1.60;;;;;;;13.46;72.94;95319.19;5071264;28;20208;-60
2022/10/27 00:34:34;;;;;;;1.80;1.67;;;;;;;13.48;74.11;95307.91;5053322;28;20652;-61
2022/10/27 00:37:00;;;;;;;2.57;1.80;;;;;;;13.38;73.55;95322.38;5071189;28;20215;-61
2022/10/27 00:39:25;;;;;;;1.70;1.60;;;;;;;13.43;73.32;95327.13;5071439;28;20240;-61
2022/10/27 00:41:51;;;;;;;3.90;2.08;;;;;;;13.47;73.55;95326.69;5053312;28;20187;-63
2022/10/27 00:44:33;;;;;;;3.35;1.70;;;;;;;13.61;73.38;95340.88;5071212;28;20251;-60
2022/10/27 00:47:03;;;;;;;3.17;1.70;;;;;;;13.76;71.97;95362.53;5071257;28;20206;-60
2022/10/27 00:49:38;;;;;;;3.53;1.70;;;;;;;13.76;72.78;95354.06;5071428;28;20207;-61
2022/10/27 00:52:14;;;;;;;2.50;1.80;;;;;;;13.69;72.53;95368.31;5071126;28;20188;-61
2022/10/27 00:54:40;;;;;;;3.53;1.80;;;;;;;13.84;71.99;95370.34;5071460;28;20314;-60
2022/10/27 00:57:08;;;;;;;2.50;1.63;;;;;;;13.94;72.90;95352.47;5070854;28;20670;-60
2022/10/27 00:59:36;;;;;;;2.53;2.00;;;;;;;14.03;72.39;95359.34;5070806;28;20249;-61
2022/10/27 01:02:02;;;;;;;2.22;1.80;;;;;;;14.19;70.47;95398.00;5052769;28;20192;-61
2022/10/27 01:04:47;;;;;;;3.97;1.40;;;;;;;14.28;71.21;95394.69;5070946;28;20254;-64
2022/10/27 01:07:16;;;;;;;3.40;1.98;;;;;;;14.05;69.70;95426.50;5071009;28;20189;-61
2022/10/27 01:09:42;;;;;;;3.33;1.80;;;;;;;13.84;70.57;95407.88;5070866;28;20714;-60
2022/10/27 01:12:08;;;;;;;4.13;2.03;;;;;;;13.83;71.04;95407.09;5070879;28;20180;-60
2022/10/27 01:14:33;;;;;;;2.70;1.63;;;;;;;13.83;71.47;95391.75;5070512;28;20566;-59
2022/10/27 01:17:17;;;;;;;1.92;1.50;;;;;;;13.99;71.17;95409.13;5070546;28;20211;-61
2022/10/27 01:20:20;;;;;;;4.18;1.98;;;;;;;14.01;70.29;95420.03;5052806;28;20219;-59
2022/10/27 01:22:48;;;;;;;2.50;1.87;;;;;;;13.73;72.50;95373.03;5070675;28;20647;-60
2022/10/27 01:25:42;;;;;;;4.47;1.55;;;;;;;13.75;73.66;95366.06;5070568;28;20231;-60
2022/10/27 01:28:40;;;;;;;3.30;1.92;;;;;;;13.79;73.66;95369.16;5052637;28;20659;-59
2022/10/27 01:31:10;;;;;;;2.70;1.70;;;;;;;14.00;71.47;95416.66;5030596;28;20215;-60
2022/10/27 01:33:56;;;;;;;6.22;2.22;;;;;;;13.67;72.71;95385.53;5071671;28;20276;-60
2022/10/27 01:36:27;;;;;;;3.78;2.00;;;;;;;13.67;73.23;95380.41;5074118;28;20220;-59
2022/10/27 01:39:40;;;;;;;3.60;2.10;;;;;;;13.73;74.23;95362.00;5072991;28;20238;-59
2022/10/27 01:42:13;;;;;;;2.22;2.00;;;;;;;13.74;74.68;95361.03;5059610;28;20269;-61
2022/10/27 01:44:47;;;;;;;4.80;2.17;;;;;;;13.71;74.53;95357.03;5074128;28;20220;-60
2022/10/27 01:47:13;;;;;;;3.60;2.17;;;;;;;13.79;75.33;95351.25;5073989;28;20196;-61
2022/10/27 01:49:41;;;;;;;2.78;2.13;;;;;;;13.85;75.28;95361.75;5055818;28;20296;-60
2022/10/27 01:52:40;;;;;;;3.42;2.25;;;;;;;14.03;74.40;95379.81;5073977;28;20263;-60
2022/10/27 01:55:31;;;;;;;3.63;2.33;;;;;;;14.10;73.61;95381.69;5072852;28;20240;-60
2022/10/27 01:58:18;;;;;;;3.95;2.72;;;;;;;14.01;73.81;95389.38;5072981;28;20270;-60
2022/10/27 02:01:20;;;;;;;5.30;2.60;;;;;;;13.75;74.06;95362.69;5073532;28;20238;-60
2022/10/27 02:03:55;;;;;;;4.77;3.13;;;;;;;13.53;75.53;95342.47;5055641;28;20283;-63
2022/10/27 02:06:28;;;;;;;5.87;2.90;;;;;;;13.22;77.11;95311.88;5073664;28;20184;-62
2022/10/27 02:09:03;;;;;;;4.20;2.92;;;;;;;13.32;76.83;95324.66;5073668;28;20213;-63
2022/10/27 02:11:32;;;;;;;4.23;2.60;;;;;;;13.34;76.58;95333.00;5073563;28;20191;-62
2022/10/27 02:13:59;;;;;;;3.92;2.30;;;;;;;13.25;77.07;95324.34;5073618;28;20205;-60
2022/10/27 02:16:29;;;;;;;4.05;2.17;;;;;;;13.20;77.30;95323.94;5073642;28;20728;-63
2022/10/27 02:19:02;;;;;;;3.80;2.20;;;;;;;13.09;77.90;95315.59;5073632;28;20212;-64
2022/10/27 02:21:31;;;;;;;3.85;2.20;;;;;;;13.13;78.94;95297.31;5073297;28;20185;-65
2022/10/27 02:23:57;;;;;;;4.40;2.03;;;;;;;13.13;79.24;95299.84;5073492;28;20219;-64
2022/10/27 02:26:29;;;;;;;3.55;2.00;;;;;;;13.07;79.14;95305.47;5073377;28;20181;-60
2022/10/27 02:29:02;;;;;;;2.97;2.00;;;;;;;13.05;78.85;95321.88;5073473;28;20196;-61
2022/10/27 02:31:35;;;;;;;3.13;1.98;;;;;;;13.02;79.69;95307.59;5073479;28;20181;-61
2022/10/27 02:34:02;;;;;;;2.63;2.33;;;;;;;13.15;79.49;95322.72;5073291;28;20687;-60
2022/10/27 02:36:28;;;;;;;3.13;1.87;;;;;;;13.14;80.65;95296.38;5072953;28;20226;-59
2022/10/27 02:38:54;;;;;;;4.40;2.50;;;;;;;13.26;79.74;95323.44;5073230;28;20220;-60
2022/10/27 02:41:20;;;;;;;4.80;2.25;;;;;;;13.28;78.71;95344.53;5055186;28;20275;-61
2022/10/27 02:43:45;;;;;;;6.20;2.70;;;;;;;13.26;79.53;95340.50;5073288;28;20193;-60
2022/10/27 02:46:10;;;;;;;5.03;2.23;;;;;;;13.25;79.35;95347.34;5071737;28;20185;-60
2022/10/27 02:48:36;;;;;;;2.72;2.08;;;;;;;13.30;79.17;95350.31;5072967;28;20185;-61
2022/10/27 02:51:01;;;;;;;4.20;2.70;;;;;;;13.43;79.05;95361.09;5072853;28;20193;-60
2022/10/27 02:53:27;;;;;;;2.60;1.77;;;;;;;13.53;79.46;95362.91;5072863;28;20216;-62
2022/10/27 02:55:52;;;;;;;4.70;3.13;;;;;;;13.52;79.55;95374.84;5072779;28;20197;-62
2022/10/27 02:58:17;;;;;;;8.45;3.30;;;;;;;13.46;78.78;95383.84;5072776;28;20572;-62
2022/10/27 03:00:43;;;;;;;6.30;2.63;;;;;;;13.37;79.22;95374.38;5072531;28;20207;-62
2022/10/27 03:03:08;;;;;;;6.43;2.80;;;;;;;13.59;79.17;95385.38;5072724;28;20551;-62
2022/10/27 03:05:34;;;;;;;4.50;3.07;;;;;;;13.56;78.59;95385.63;5072662;28;20209;-63
2022/10/27 03:08:00;;;;;;;5.60;3.08;;;;;;;13.56;79.01;95385.63;5072766;28;20472;-60
2022/10/27 03:10:25;;;;;;;5.35;2.80;;;;;;;13.54;80.08;95377.28;5071203;28;20208;-65
2022/10/27 03:12:51;;;;;;;3.30;2.60;;;;;;;13.55;79.94;95382.28;5071284;28;20618;-65
2022/10/27 03:15:16;;;;;;;3.47;2.47;;;;;;;13.85;77.95;95414.63;5072662;28;20209;-62
2022/10/27 03:17:46;;;;;;;6.43;2.70;;;;;;;13.74;78.61;95404.50;5072449;28;20205;-62
2022/10/27 03:20:13;;;;;;;4.10;2.80;;;;;;;13.53;80.08;95373.94;5054760;28;20221;-63
2022/10/27 03:22:39;;;;;;;6.40;3.15;;;;;;;13.29;80.65;95370.88;5072388;28;20180;-62
2022/10/27 03:25:04;;;;;;;6.53;2.92;;;;;;;13.12;81.84;95359.53;5072750;28;20215;-63
2022/10/27 03:27:30;;;;;;;8.23;2.63;;;;;;;12.97;82.67;95359.97;5072297;28;20208;-63
2022/10/27 03:29:55;;;;;;;4.78;2.90;;;;;;;12.73;83.61;95355.13;5054342;28;20593;-62
2022/10/27 03:32:21;;;;;;;4.97;2.40;;;;;;;12.87;82.89;95369.28;5072229;28;20674;-62
2022/10/27 03:34:46;;;;;;;7.05;3.00;;;;;;;12.97;82.44;95388.81;5070852;28;20251;-65
2022/10/27 03:37:12;;;;;;;4.20;2.70;;;;;;;13.19;82.01;95401.47;5072170;28;20212;-65
2022/10/27 03:39:37;;;;;;;5.07;3.35;;;;;;;13.19;81.54;95411.69;5054288;28;20651;-65
2022/10/27 03:42:03;;;;;;;5.63;3.00;;;;;;;13.09;82.71;95384.50;5072128;28;20614;-65
2022/10/27 03:44:28;;;;;;;4.13;2.80;;;;;;;13.13;82.55;95386.66;5072212;28;20244;-64
2022/10/27 03:46:53;;;;;;;5.35;3.08;;;;;;;13.19;82.04;95400.69;5054072;28;20242;-65
2022/10/27 03:49:19;;;;;;;6.53;3.13;;;;;;;13.34;81.38;95418.09;5071783;28;20651;-65
2022/10/27 03:51:44;;;;;;;5.93;3.08;;;;;;;13.17;81.03;95407.66;5072023;28;20189;-64
2022/10/27 03:54:10;;;;;;;5.63;2.83;;;;;;;12.95;81.12;95416.22;5072250;28;20208;-64
2022/10/27 03:56:35;;;;;;;3.65;2.55;;;;;;;12.64;82.32;95392.38;5071387;28;20239;-61
2022/10/27 03:59:00;;;;;;;5.13;2.97;;;;;;;12.60;83.22;95374.91;5072015;28;20219;-62
2022/10/27 04:01:27;;;;;;;5.17;3.07;;;;;;;12.53;83.33;95382.25;5071671;28;20273;-60
2022/10/27 04:03:52;;;;;;;7.00;2.60;;;;;;;12.24;83.67;95344.72;5077891;23;20212;-61
2022/10/27 04:06:18;;;;;;;4.13;2.80;;;;;;;12.32;84.30;95367.88;5031047;28;20680;-63
2022/10/27 04:08:43;;;;;;;3.63;2.23;;;;;;;12.28;83.97;95369.06;5031726;28;20537;-63
2022/10/27 04:11:08;;;;;;;3.50;2.30;;;;;;;12.25;84.44;95372.66;5031629;28;20206;-64
2022/10/27 04:13:34;;;;;;;4.90;2.60;;;;;;;12.16;85.02;95359.84;5031555;28;20208;-63
2022/10/27 04:16:00;;;;;;;4.43;2.53;;;;;;;12.01;85.84;95354.22;5031794;28;20194;-62
2022/10/27 04:18:26;;;;;;;2.33;2.10;;;;;;;12.10;85.42;95373.84;5031458;28;20574;-62
2022/10/27 04:21:00;;;;;;;4.63;2.53;;;;;;;11.92;86.39;95354.91;5031354;28;20218;-63
2022/10/27 04:23:25;;;;;;;3.33;2.80;;;;;;;11.87;87.23;95356.22;5031573;28;20205;-64
2022/10/27 04:25:51;;;;;;;5.03;3.00;;;;;;;11.93;86.85;95361.66;5031417;28;20202;-63
2022/10/27 04:28:16;;;;;;;4.67;2.60;;;;;;;11.90;87.38;95361.09;5031593;28;20277;-61
2022/10/27 04:30:42;;;;;;;4.47;2.40;;;;;;;11.92;88.30;95349.03;5013834;28;20200;-61
2022/10/27 04:33:08;;;;;;;3.90;2.33;;;;;;;12.10;87.51;95378.94;5031401;28;20194;-62
2022/10/27 04:35:33;;;;;;;3.43;2.60;;;;;;;12.03;86.45;95392.31;5031096;28;20719;-60
2022/10/27 04:37:59;;;;;;;5.00;2.07;;;;;;;12.01;87.93;95374.59;5030969;28;20205;-61
2022/10/27 04:40:24;;;;;;;5.83;2.20;;;;;;;11.94;87.91;95388.72;5031276;28;20214;-61
2022/10/27 04:42:50;;;;;;;3.40;2.50;;;;;;;11.85;88.14;95379.28;5013353;28;20743;-61
2022/10/27 04:45:15;;;;;;;3.23;2.50;;;;;;;11.87;89.40;95372.31;5031202;28;20260;-60
2022/10/27 04:47:42;;;;;;;4.33;2.60;;;;;;;12.07;87.96;95403.88;5031002;28;20182;-60
2022/10/27 04:50:08;;;;;;;4.60;2.37;;;;;;;12.25;87.23;95418.53;5031185;28;20241;-61
2022/10/27 04:52:33;;;;;;;4.53;2.83;;;;;;;12.32;87.57;95414.56;5013227;28;20270;-61
2022/10/27 04:54:59;;;;;;;7.63;2.60;;;;;;;12.28;88.22;95412.38;5031246;28;20210;-61
2022/10/27 04:57:24;;;;;;;7.03;2.53;;;;;;;12.46;87.23;95429.56;5029512;28;20233;-60
2022/10/27 04:59:50;;;;;;;3.77;2.37;;;;;;;12.57;86.44;95431.25;5030800;28;20217;-60
2022/10/27 05:02:15;;;;;;;4.43;2.50;;;;;;;12.81;84.45;95475.22;5031004;28;20182;-61
2022/10/27 05:04:40;;;;;;;6.20;3.23;;;;;;;12.87;83.36;95487.50;5031310;28;20748;-61
2022/10/27 05:07:06;;;;;;;5.23;2.60;;;;;;;12.91;91.04;95452.34;5030728;28;20190;-60
2022/10/27 05:09:31;;;;;;;7.50;3.37;;;;;;;13.19;100.00;95451.75;5029965;28;20664;-59
2022/10/27 05:11:56;;;;;;;4.77;3.03;;;;;;;13.15;95.20;95520.09;5030688;28;20186;-60
2022/10/27 05:14:22;;;;;;;8.17;2.70;;;;;;;13.14;86.50;95571.28;5030458;28;20202;-60
2022/10/27 05:16:47;;;;;;;6.43;2.57;;;;;;;13.20;83.96;95596.34;5030600;28;20276;-64
2022/10/27 05:19:13;;;;;;;4.47;2.80;;;;;;;13.15;82.43;95614.56;5030570;28;20297;-65
2022/10/27 05:21:38;;;;;;;6.72;2.60;;;;;;;12.85;84.20;95583.78;5012858;28;20190;-64
2022/10/27 05:24:04;;;;;;;5.20;2.83;;;;;;;12.67;86.33;95567.34;5030833;28;20210;-65
2022/10/27 05:26:29;;;;;;;6.47;2.83;;;;;;;12.85;84.25;95604.19;5030610;28;20182;-65
2022/10/27 05:28:55;;;;;;;8.88;3.40;;;;;;;12.81;85.56;95584.13;5030598;28;20229;-65
2022/10/27 05:31:20;;;;;;;7.32;3.03;;;;;;;13.00;82.58;95633.63;5030476;28;20208;-63
2022/10/27 05:33:46;;;;;;;4.53;2.75;;;;;;;12.78;84.26;95604.81;5030552;28;20261;-64
2022/10/27 05:36:11;;;;;;;13.87;3.13;;;;;;;12.75;84.00;95605.03;5038635;22;20675;-64
2022/10/27 05:38:38;;;;;;;8.80;2.87;;;;;;;12.66;83.69;95611.66;5067277;28;20275;-64
2022/10/27 05:41:04;;;;;;;6.83;3.13;;;;;;;12.49;85.30;95596.84;5069311;28;20223;-65
2022/10/27 05:43:30;;;;;;;7.07;2.97;;;;;;;12.44;87.65;95560.69;5070388;28;20204;-61
2022/10/27 05:45:55;;;;;;;9.50;3.55;;;;;;;12.59;85.60;95601.13;5069008;28;20184;-61
2022/10/27 05:48:21;;;;;;;6.47;3.20;;;;;;;12.55;85.81;95606.56;5052557;28;20193;-62
2022/10/27 05:50:52;;;;;;;6.63;3.03;;;;;;;12.50;88.18;95570.44;5070085;28;20204;-61
2022/10/27 05:53:18;;;;;;;9.37;4.10;;;;;;;12.64;86.98;95591.34;5052228;28;20189;-60
2022/10/27 05:55:43;;;;;;;6.22;3.58;;;;;;;12.70;85.46;95627.53;5070218;28;20197;-60
2022/10/27 05:58:10;;;;;;;8.13;3.83;;;;;;;12.63;87.40;95596.59;5069905;28;20254;-60
2022/10/27 06:00:37;;;;;;;6.87;3.60;;;;;;;12.43;87.51;95594.75;5070045;28;20667;-62
2022/10/27 06:03:05;;;;;;;9.10;3.37;;;;;;;12.58;88.76;95588.50;5052032;28;20184;-63
2022/10/27 06:05:31;;;;;;;9.98;4.30;;;;;;;12.66;86.79;95619.31;5069812;28;20201;-63
2022/10/27 06:07:57;;;;;;;8.88;4.28;;;;;;;12.73;86.16;95625.56;5070221;28;20208;-62
2022/10/27 06:10:23;;;;;;;8.97;4.03;;;;;;;12.61;87.21;95609.47;5068410;28;20682;-63
2022/10/27 06:12:48;;;;;;;7.30;4.07;;;;;;;12.85;85.89;95632.25;5052060;28;20193;-63
2022/10/27 06:15:14;;;;;;;8.83;3.77;;;;;;;12.91;83.82;95656.50;5069892;28;20211;-62
2022/10/27 06:17:40;;;;;;;12.53;5.00;;;;;;;12.87;83.90;95662.75;5069762;28;20663;-63
2022/10/27 06:20:06;;;;;;;10.20;4.70;;;;;;;12.78;83.37;95656.66;5071544;28;20228;-63
2022/10/27 06:22:31;;;;;;;11.57;4.83;;;;;;;12.68;84.69;95643.78;5073100;28;20749;-62
2022/10/27 06:24:57;;;;;;;11.37;5.03;;;;;;;12.67;84.73;95638.78;5073397;28;20204;-62
2022/10/27 06:27:22;;;;;;;10.23;4.70;;;;;;;12.76;84.52;95647.47;5073577;28;20192;-61
2022/10/27 06:29:48;;;;;;;13.50;4.10;;;;;;;12.69;84.33;95657.34;5055334;28;20645;-63
2022/10/27 06:32:13;;;;;;;12.73;3.97;;;;;;;12.67;85.00;95646.44;5073525;28;20201;-62
2022/10/27 06:34:39;;;;;;;10.10;5.07;;;;;;;12.75;84.99;95654.31;5073051;28;20236;-60
2022/10/27 06:37:05;;;;;;;12.00;5.50;;;;;;;12.80;86.14;95641.22;5073254;28;20242;-65
2022/10/27 06:39:31;;;;;;;12.67;5.30;;;;;;;12.79;85.07;95652.34;5072880;28;20197;-65
2022/10/27 06:41:57;;;;;;;13.50;5.07;;;;;;;13.01;84.42;95660.75;5073192;28;20189;-65
2022/10/27 06:44:24;;;;;;;10.10;4.68;;;;;;;13.15;84.16;95664.84;5072895;28;20205;-65
2022/10/27 06:46:50;;;;;;;13.95;4.90;;;;;;;13.21;83.86;95679.69;5072726;28;20207;-63
2022/10/27 06:49:15;;;;;;;9.35;4.20;;;;;;;13.06;84.03;95663.00;5072620;28;20208;-65
2022/10/27 06:51:41;;;;;;;6.67;4.50;;;;;;;13.02;84.09;95674.34;5072984;28;20339;-65
2022/10/27 06:54:06;;;;;;;12.83;4.80;;;;;;;13.05;83.37;95679.25;5054694;28;20208;-63
2022/10/27 06:56:33;;;;;;;15.15;4.72;;;;;;;13.06;82.96;95696.19;5071408;28;20263;-64
2022/10/27 06:58:59;;;;;;;12.23;5.28;;;;;;;13.07;82.67;95693.50;5054722;28;20277;-66
2022/10/27 07:01:24;;;;;;;6.60;4.83;;;;;;;13.11;82.94;95689.78;5072799;28;20197;-64
2022/10/27 07:03:50;;;;;;;12.73;4.70;;;;;;;13.28;81.67;95721.66;5072787;28;20209;-65
2022/10/27 07:06:16;;;;;;;11.10;4.57;;;;;;;13.49;81.69;95731.00;5072697;28;20261;-65
2022/10/27 07:08:41;;;;;;;10.88;4.72;;;;;;;13.71;81.19;95735.25;5072546;28;20192;-64
2022/10/27 07:11:08;;;;;;;11.93;4.67;;;;;;;13.90;79.62;95762.69;5072338;28;20672;-63
2022/10/27 07:13:33;;;;;;;8.13;4.60;;;;;;;14.12;77.47;95804.31;5072518;28;20206;-64
2022/10/27 07:15:59;;;;;;;7.17;4.50;;;;;;;14.22;76.37;95812.88;5072290;28;20188;-64
2022/10/27 07:18:24;;;;;;;16.38;5.97;;;;;;;14.11;76.82;95801.88;5072258;28;20212;-65
2022/10/27 07:20:52;;;;;;;10.57;6.18;;;;;;;14.18;76.44;95808.94;5072474;28;20257;-62
2022/10/27 07:23:17;;;;;;;10.13;5.03;;;;;;;14.30;75.47;95820.78;5072441;28;20189;-61
2022/10/27 07:25:42;;;;;;;11.48;6.18;;;;;;;14.41;76.15;95809.66;5072244;28;20580;-60
2022/10/27 07:28:08;;;;;;;13.10;6.53;;;;;;;14.24;77.38;95780.31;5054311;28;20243;-60
2022/10/27 07:30:43;;;;;;;11.40;5.63;;;;;;;14.21;79.27;95743.94;5071901;28;20659;-61
2022/10/27 07:33:08;;;;;;;16.27;7.73;;;;;;;14.11;79.46;95746.44;5071968;28;20197;-60
2022/10/27 07:35:34;;;;;;;15.75;7.00;;;;;;;14.31;79.16;95749.97;5072328;28;20758;-60
2022/10/27 07:37:59;;;;;;;20.58;7.45;;;;;;;14.35;77.95;95771.78;5070399;28;20295;-62
2022/10/27 07:40:25;;;;;;;13.25;7.78;;;;;;;14.60;77.27;95788.50;5071969;28;20279;-60
2022/10/27 07:42:55;;;;;;;12.98;8.27;;;;;;;14.88;77.42;95791.22;5071880;28;20212;-60
2022/10/27 07:45:22;;;;;;;20.27;7.57;;;;;;;15.13;77.09;95808.72;5072056;28;20690;-59
2022/10/27 07:47:52;;;;;;;14.85;8.38;;;;;;;15.26;76.41;95805.94;5071842;28;20274;-60
2022/10/27 07:50:20;;;;;;;14.35;7.60;;;;;;;15.28;75.80;95821.16;5071770;28;20207;-59
2022/10/27 07:52:51;;;;;;;22.20;9.27;;;;;;;15.32;73.71;95860.97;5071695;28;20254;-61
2022/10/27 07:55:19;;;;;;;18.42;8.90;;;;;;;15.42;72.75;95874.63;5072005;28;20216;-61
2022/10/27 07:57:45;;;;;;;13.25;9.05;;;;;;;15.23;74.86;95838.69;5071594;28;20690;-61
2022/10/27 08:00:13;;;;;;;18.42;9.18;;;;;;;15.57;73.69;95850.31;5071573;28;20202;-60
2022/10/27 08:02:39;;;;;;;18.65;9.43;;;;;;;15.65;71.96;95894.03;5071506;28;20185;-60
2022/10/27 08:05:07;;;;;;;21.63;10.30;;;;;;;15.62;70.78;95915.63;5071552;28;20204;-61
2022/10/27 08:07:34;;;;;;;19.85;9.75;;;;;;;15.79;70.15;95921.88;5071813;28;20255;-60
2022/10/27 08:09:59;;;;;;;21.85;10.13;;;;;;;16.05;68.75;95943.56;5071543;28;20698;-61
2022/10/27 08:12:26;;;;;;;18.55;8.85;;;;;;;16.10;68.15;95943.16;5071469;28;20192;-60
2022/10/27 08:14:52;;;;;;;15.48;8.38;;;;;;;16.21;67.43;95953.31;5071486;28;20262;-61
2022/10/27 08:17:17;;;;;;;11.38;7.90;;;;;;;16.53;67.64;95931.63;5071391;28;20216;-60
2022/10/27 08:19:43;;;;;;;20.85;8.10;;;;;;;16.91;65.74;95971.13;5071203;28;20215;-62
2022/10/27 08:22:08;;;;;;;15.68;7.32;;;;;;;16.91;64.08;96000.16;5071279;28;20196;-61
2022/10/27 08:24:34;;;;;;;14.10;6.40;;;;;;;16.74;62.39;96022.22;5071208;28;20695;-59
2022/10/27 08:27:00;;;;;;;12.80;5.78;;;;;;;17.01;62.48;96011.25;5071624;28;20185;-60
2022/10/27 08:29:25;;;;;;;15.05;6.20;;;;;;;17.20;60.90;96036.16;5071070;28;20212;-60
2022/10/27 08:31:51;;;;;;;14.43;5.68;;;;;;;17.24;60.93;96038.31;5071353;28;20698;-60
2022/10/27 08:34:17;;;;;;;15.00;6.53;;;;;;;17.61;59.97;96059.00;5071088;28;20212;-60
2022/10/27 08:36:43;;;;;;;12.35;6.13;;;;;;;17.98;59.16;96069.31;5052839;28;20193;-61
2022/10/27 08:39:09;;;;;;;20.90;5.70;;;;;;;18.37;58.25;96087.09;5071124;28;20618;-61
2022/10/27 08:41:58;;;;;;;13.95;6.63;;;;;;;18.57;57.39;96089.59;5070967;28;20286;-61
2022/10/27 08:44:31;;;;;;;12.18;5.45;;;;;;;18.98;56.54;96107.13;5070061;28;20261;-61
2022/10/27 08:47:02;;;;;;;7.63;4.95;;;;;;;19.32;55.85;96108.13;5071182;28;20181;-61
2022/10/27 08:49:38;;;;;;;13.38;6.05;;;;;;;19.45;55.20;96118.09;5070715;28;20228;-60
2022/10/27 08:52:43;;;;;;;11.68;6.43;;;;;;;20.03;54.00;96156.16;5071042;28;20276;-61
2022/10/27 08:55:11;;;;;;;11.68;6.53;;;;;;;20.51;52.90;96172.94;5060057;28;20248;-61
2022/10/27 08:57:39;;;;;;;12.45;6.50;;;;;;;20.79;52.13;96177.78;5071145;28;20216;-61
2022/10/27 09:00:09;;;;;;;15.68;6.15;;;;;;;21.23;50.24;96222.44;5070779;28;20653;-61
2022/10/27 09:03:39;;;;;;;17.85;11.52;;;;;;;21.41;48.81;96235.28;5070904;28;20188;-60
2022/10/27 09:06:07;;;;;;;13.75;6.70;;;;;;;21.19;48.18;96215.16;4967323;28;20202;-59
2022/10/27 09:09:04;;;;;;;12.10;7.22;;;;;;;21.40;47.11;96224.13;4973130;28;20199;-61
2022/10/27 09:12:00;;;;;;;10.80;6.10;;;;;;;21.54;47.16;96207.97;5045243;28;20211;-61
2022/10/27 09:14:26;;;;;;;12.23;6.38;;;;;;;21.42;46.09;96224.78;5070859;28;20219;-60
2022/10/27 09:16:58;;;;;;;12.50;6.00;;;;;;;21.13;47.40;96177.78;5070806;28;20195;-60
2022/10/27 09:19:33;;;;;;;11.82;7.78;;;;;;;21.44;47.26;96168.47;5070678;28;20279;-61
2022/10/27 09:22:03;;;;;;;11.85;5.07;;;;;;;21.81;45.85;96200.88;5052682;28;20197;-65
2022/10/27 09:24:33;;;;;;;8.48;5.13;;;;;;;22.12;44.17;96241.56;5070691;28;20207;-62
2022/10/27 09:27:01;;;;;;;9.88;5.10;;;;;;;22.01;44.99;96218.59;5070515;28;20749;-60
2022/10/27 09:29:30;;;;;;;8.77;4.97;;;;;;;22.27;45.31;96189.91;5070382;28;20205;-60
2022/10/27 09:32:01;;;;;;;10.73;4.93;;;;;;;22.29;43.78;96224.25;5070420;28;20195;-61
2022/10/27 09:34:50;;;;;;;8.50;5.07;;;;;;;22.63;44.24;96200.72;5070145;28;20235;-60
2022/10/27 09:37:18;;;;;;;8.30;4.57;;;;;;;22.72;43.35;96215.31;5070325;28;20220;-60
2022/10/27 09:39:49;;;;;;;10.18;4.45;;;;;;;22.89;42.35;96246.22;5070232;28;20201;-60
2022/10/27 09:42:15;;;;;;;8.57;4.35;;;;;;;23.14;41.38;96258.16;5070280;28;20219;-61
2022/10/27 09:45:15;;;;;;;11.25;4.65;;;;;;;22.25;42.66;96210.00;5070320;28;20196;-63
2022/10/27 09:47:44;;;;;;;10.75;4.68;;;;;;;21.97;43.75;96152.53;5052102;28;20297;-61
2022/10/27 09:50:27;;;;;;;7.70;4.07;;;;;;;22.36;42.13;96209.66;5069905;28;20216;-63
2022/10/27 09:52:53;;;;;;;12.38;4.43;;;;;;;22.24;41.26;96229.91;5070594;28;20189;-62
2022/10/27 09:55:20;;;;;;;11.10;3.95;;;;;;;22.59;40.96;96244.34;5071966;28;20207;-62
2022/10/27 09:57:47;;;;;;;7.10;4.35;;;;;;;22.50;41.18;96224.56;5073993;28;20216;-62
2022/10/27 10:00:15;;;;;;;5.63;3.88;;;;;;;22.93;41.64;96194.78;5073737;28;20204;-62
2022/10/27 10:03:05;;;;;;;7.78;3.67;;;;;;;23.57;42.25;96184.16;5073850;28;20189;-62
2022/10/27 10:05:34;;;;;;;11.25;4.43;;;;;;;23.98;40.29;96253.03;5073421;28;20201;-62
2022/10/27 10:08:22;;;;;;;4.65;3.65;;;;;;;24.31;40.43;96229.41;5073283;28;20271;-63
2022/10/27 10:11:00;;;;;;;8.73;3.95;;;;;;;24.53;40.00;96231.97;5073294;28;20708;-62
2022/10/27 10:13:27;;;;;;;7.65;3.85;;;;;;;24.80;37.74;96319.06;5073387;28;20181;-65
2022/10/27 10:16:14;;;;;;;8.18;3.45;;;;;;;24.62;36.20;96358.41;5073413;28;20193;-62
2022/10/27 10:18:42;;;;;;;5.93;3.80;;;;;;;24.59;36.30;96322.31;5072918;28;20225;-62
2022/10/27 10:21:10;;;;;;;5.65;3.83;;;;;;;24.64;37.23;96254.97;5073400;28;20181;-63
2022/10/27 10:23:58;;;;;;;8.00;3.38;;;;;;;24.54;36.77;96253.59;5073229;28;20193;-60
2022/10/27 10:26:27;;;;;;;6.03;2.95;;;;;;;24.69;36.87;96244.81;5073118;28;20188;-61
2022/10/27 10:28:55;;;;;;;7.13;3.28;;;;;;;24.81;36.49;96253.03;5073028;28;20297;-61
2022/10/27 10:31:27;;;;;;;8.63;3.40;;;;;;;25.03;36.96;96235.72;5073197;28;20189;-61
2022/10/27 10:34:00;;;;;;;5.00;2.35;;;;;;;25.29;33.62;96358.47;5073258;28;20273;-61
2022/10/27 10:36:37;;;;;;;5.72;2.10;;;;;;;25.05;33.56;96319.66;5073243;28;20192;-60
2022/10/27 10:39:21;;;;;;;4.05;2.97;;;;;;;25.17;33.69;96285.16;5073037;28;20295;-60
2022/10/27 10:42:10;;;;;;;6.22;2.60;;;;;;;25.03;32.98;96304.19;5073240;28;20263;-64
2022/10/27 10:44:36;;;;;;;4.38;1.85;;;;;;;24.59;33.87;96248.66;5072899;28;20209;-64
2022/10/27 10:47:05;;;;;;;2.50;2.22;;;;;;;24.72;33.65;96264.47;5073065;28;20200;-65
2022/10/27 10:49:44;;;;;;;6.45;2.53;;;;;;;25.06;34.13;96237.97;5071422;28;20205;-63
2022/10/27 10:52:21;;;;;;;4.13;1.60;;;;;;;25.05;31.95;96317.84;5073100;28;20300;-64
2022/10/27 10:54:47;;;;;;;4.53;2.33;;;;;;;24.72;31.19;96335.53;5072953;28;20200;-64
2022/10/27 10:57:33;;;;;;;3.35;1.88;;;;;;;24.77;32.39;96283.81;5072682;28;20683;-63
2022/10/27 10:59:59;;;;;;;5.10;2.10;;;;;;;24.60;32.70;96250.28;5071455;28;20238;-65
2022/10/27 11:02:30;;;;;;;5.88;2.17;;;;;;;24.67;33.47;96220.78;5073268;28;20196;-59
2022/10/27 11:05:08;;;;;;;4.60;2.22;;;;;;;24.84;32.49;96250.91;5072687;28;20237;-60
2022/10/27 11:07:34;;;;;;;6.03;2.13;;;;;;;25.02;32.96;96224.50;5071572;28;20173;-61
2022/10/27 11:10:10;;;;;;;7.72;2.60;;;;;;;25.26;34.00;96184.34;5072573;28;20205;-60
2022/10/27 11:12:43;;;;;;;6.07;2.40;;;;;;;25.30;32.86;96227.25;5072944;28;20192;-60
2022/10/27 11:15:26;;;;;;;2.63;2.17;;;;;;;25.20;31.26;96284.00;5072397;28;20201;-61
2022/10/27 11:17:56;;;;;;;5.68;2.15;;;;;;;24.93;32.41;96225.56;5072359;28;20213;-59
2022/10/27 11:20:35;;;;;;;7.55;2.55;;;;;;;24.84;32.04;96232.69;5072578;28;20254;-61
2022/10/27 11:23:09;;;;;;;4.82;1.60;;;;;;;24.75;31.68;96246.75;5054428;28;20184;-60
2022/10/27 11:25:36;;;;;;;2.60;1.63;;;;;;;24.91;31.75;96236.16;5072408;28;20213;-59
2022/10/27 11:28:10;;;;;;;4.43;2.00;;;;;;;24.84;30.81;96258.69;5072767;28;20220;-65
2022/10/27 11:30:42;;;;;;;4.60;1.58;;;;;;;25.11;30.92;96253.88;5072311;28;20196;-64
2022/10/27 11:33:28;;;;;;;4.13;1.98;;;;;;;25.08;30.94;96244.59;5072680;28;20220;-61
2022/10/27 11:36:17;;;;;;;6.45;1.83;;;;;;;25.19;30.87;96256.38;5072283;28;20219;-60
2022/10/27 11:38:53;;;;;;;2.40;1.67;;;;;;;25.18;30.38;96273.78;5072003;28;20240;-59
2022/10/27 11:41:29;;;;;;;2.88;1.80;;;;;;;25.35;30.07;96280.41;5070743;28;20195;-60
2022/10/27 11:44:04;;;;;;;1.27;1.17;;;;;;;25.31;30.01;96278.38;5072121;28;20212;-60